EDDEEDDC

Guest
Details From EDDE - Erfurt
To EDDC - Dresden
Flight Number -
Tags generated
Created
Modified
Stats Distance 106 nm / 197 km
Max Altitude 3,200 ft / 975 m
Waypoints 3
Social Downloads 5
Likes 0
Share VATSIM

Download

Looking for another format? Having issues loading an existing format? Contact us
Advertisement - Login to hide

Notes

Basic altitude profile: - Ascent Rate: 2500ft/min - Ascent Speed: 250kts - Cruise Altitude: 35000ft - Cruise Speed: 420kts - Descent Rate: 1500ft/min - Descent Speed: 250kts Options: - Use NATs: yes - Use PACOTS: yes - Use low airways: yes - Use high airways: yes

Route

EDDE RIVSA EDDC

ID Type Via Altitude Latitude Longitude Leg Dist Tot Dist Heading (true) Name
O EDDE APT - 0 ft / 0 m 50.97981˚ 10.95810˚ - 0 nm - Erfurt
RIVSA FIX - 3,200 ft / 975 m 51.10861˚ 13.36667˚ 91 nm 91 nm 84° / 86° -
O EDDC APT - 0 ft / 0 m 51.13437˚ 13.76806˚ 15 nm 106 nm 84° / 84° Dresden

Altitude Profile

Advertisement - Login to hide

EDDE

Details ICAO EDDE (ERF)
Name Erfurt
Region Germany - Civil
Timezone Europe/Berlin (UTC+2.0)
Stats Elevation 1,035 ft / 315 m (AMSL)
Location 50.979808° 10.958105°
Runways 1
Magnetic Variation 3.081° E

METAR

EDDE 210720Z 04008KT CAVOK 15/09 Q1020 NOSIG

Decode

TAF

TAF EDDE 210500Z 2106/2206 05006KT CAVOK BECMG 2107/2109 07011KT BECMG 2118/2120 09004KT

Decode

Departure Runways

ID Width Length Bearing (true) Bearing (mag) Surface Threshold Offset Overrun Length
10 164 ft / 50 m 8,523 ft / 2,598 m 98.24° 95.16° Asphalt 0 ft / 0 m 0 ft / 0 m
28 164 ft / 50 m 8,523 ft / 2,598 m 278.27° 275.19° Asphalt 656 ft / 200 m 0 ft / 0 m

EDDC

Details ICAO EDDC (DRS)
Name Dresden
Region Germany - Civil
Timezone Europe/Berlin (UTC+2.0)
Stats Elevation 752 ft / 229 m (AMSL)
Location 51.134366° 13.768065°
Runways 1
Magnetic Variation 3.855° E

METAR

EDDC 210720Z 11009KT 060V140 CAVOK 18/06 Q1021 NOSIG

Decode

TAF

TAF EDDC 210500Z 2106/2206 08005KT CAVOK BECMG 2106/2109 09010KT TEMPO 2110/2118 09015G25KT BECMG 2117/2120 09005KT

Decode

Destination Runways

ID Width Length Bearing (true) Bearing (mag) Surface Threshold Offset Overrun Length
04 197 ft / 60 m 9,348 ft / 2,849 m 40.74° 36.89° Concrete 0 ft / 0 m 0 ft / 0 m
22 197 ft / 60 m 9,348 ft / 2,849 m 220.76° 216.91° Concrete 984 ft / 300 m 0 ft / 0 m

Approach Navaids

Runway Type Ident Frequency Range Bearing (true) Bearing (mag) Slope Elevation
04 Localiser IDRE 110.50 MHz 18 nm / 33 km 40.83° 36.98° - 703 ft / 214 m (AMSL)
04 Glidescope IDRE 110.50 MHz 10 nm / 19 km 40.83° 36.98° 3.00° 755 ft / 230 m (AMSL)
22 Localiser IDRW 109.70 MHz 18 nm / 33 km 220.81° 216.95° - 755 ft / 230 m (AMSL)
22 Glidescope IDRW 109.70 MHz 10 nm / 19 km 220.81° 216.95° 3.00° 703 ft / 214 m (AMSL)

Popular Alternatives